createdAt,value
2022-10-22T00:00:54.253Z,98487.50
2022-10-22T00:03:21.988Z,98494.53
2022-10-22T00:05:49.859Z,98496.56
2022-10-22T00:08:17.606Z,98497.03
2022-10-22T00:10:45.421Z,98494.47
2022-10-22T00:13:15.681Z,98489.53
2022-10-22T00:15:43.381Z,98501.78
2022-10-22T00:18:11.066Z,98509.06
2022-10-22T00:20:38.803Z,98503.16
2022-10-22T00:23:06.555Z,98524.13
2022-10-22T00:25:35.767Z,98523.75
2022-10-22T00:28:03.942Z,98526.50
2022-10-22T00:30:32.995Z,98532.72
2022-10-22T00:33:00.813Z,98530.50
2022-10-22T00:35:28.605Z,98533.31
2022-10-22T00:37:56.265Z,98537.69
2022-10-22T00:40:24.086Z,98533.75
2022-10-22T00:42:51.714Z,98537.66
2022-10-22T00:45:24.631Z,98526.69
2022-10-22T00:47:58.820Z,98527.63
2022-10-22T00:50:31.331Z,98517.31
2022-10-22T00:52:59.920Z,98509.34
2022-10-22T00:55:29.595Z,98512.28
2022-10-22T00:57:59.180Z,98492.22
2022-10-22T01:00:27.598Z,98469.75
2022-10-22T01:02:56.957Z,98469.81
2022-10-22T01:05:27.874Z,98463.31
2022-10-22T01:07:55.863Z,98473.38
2022-10-22T01:10:39.978Z,98466.34
2022-10-22T01:13:21.074Z,98470.22
2022-10-22T01:15:56.893Z,98477.66
2022-10-22T01:18:33.832Z,98473.50
2022-10-22T01:21:10.758Z,98489.59
2022-10-22T01:24:05.226Z,98494.69
2022-10-22T01:26:45.008Z,98493.97
2022-10-22T01:29:18.115Z,98488.09
2022-10-22T01:31:50.020Z,98503.84
2022-10-22T01:34:19.956Z,98514.16
2022-10-22T01:36:49.128Z,98503.03
2022-10-22T01:39:18.332Z,98493.91
2022-10-22T01:41:46.289Z,98505.44
2022-10-22T01:44:30.132Z,98504.47
2022-10-22T01:47:08.829Z,98514.66
2022-10-22T01:49:55.897Z,98540.03
2022-10-22T01:52:33.034Z,98532.19
2022-10-22T01:55:15.978Z,98538.19
2022-10-22T01:57:52.044Z,98549.25
2022-10-22T02:00:21.444Z,98572.50
2022-10-22T02:02:57.366Z,98570.91
2022-10-22T02:05:31.167Z,98567.47
2022-10-22T02:08:02.827Z,98575.31
2022-10-22T02:10:31.529Z,98568.09
2022-10-22T02:13:02.111Z,98559.47
2022-10-22T02:15:34.267Z,98566.94
2022-10-22T02:18:02.074Z,98549.88
2022-10-22T02:20:32.588Z,98552.16
2022-10-22T02:23:01.577Z,98553.03
2022-10-22T02:25:33.017Z,98553.91
2022-10-22T02:28:08.731Z,98546.88
2022-10-22T02:30:40.924Z,98552.16
2022-10-22T02:33:13.837Z,98548.09
2022-10-22T02:35:43.530Z,98545.44
2022-10-22T02:38:12.573Z,98529.44
2022-10-22T02:40:40.333Z,98536.13
2022-10-22T02:43:08.493Z,98541.53
2022-10-22T02:45:37.992Z,98515.13
2022-10-22T02:48:06.385Z,98503.03
2022-10-22T02:50:34.058Z,98489.41
2022-10-22T02:53:01.832Z,98492.09
2022-10-22T02:55:29.530Z,98489.72
2022-10-22T02:57:57.225Z,98493.69
2022-10-22T03:00:25.062Z,98497.66
2022-10-22T03:02:54.158Z,98494.44
2022-10-22T03:05:21.937Z,98490.25
2022-10-22T03:07:49.707Z,98509.47
2022-10-22T03:10:17.602Z,98534.34
2022-10-22T03:12:45.341Z,98539.78
2022-10-22T03:15:13.019Z,98533.13
2022-10-22T03:17:40.976Z,98516.25
2022-10-22T03:20:10.891Z,98520.06
2022-10-22T03:22:42.271Z,98511.50
2022-10-22T03:25:14.143Z,98502.06
2022-10-22T03:27:43.450Z,98510.59
2022-10-22T03:30:12.102Z,98500.16
2022-10-22T03:32:39.958Z,98500.94
2022-10-22T03:35:08.146Z,98499.81
2022-10-22T03:37:38.119Z,98478.84
2022-10-22T03:40:08.664Z,98475.53
2022-10-22T03:42:36.524Z,98470.72
2022-10-22T03:45:05.103Z,98470.19
2022-10-22T03:47:32.801Z,98482.53
2022-10-22T03:50:00.627Z,98471.00
2022-10-22T03:52:28.338Z,98473.41
2022-10-22T03:54:57.703Z,98473.06
2022-10-22T03:57:25.421Z,98476.81
2022-10-22T03:59:53.139Z,98494.69
2022-10-22T04:02:20.841Z,98513.34
2022-10-22T04:04:48.533Z,98529.50
2022-10-22T04:07:16.368Z,98523.31
2022-10-22T04:09:44.065Z,98519.47
2022-10-22T04:12:13.109Z,98528.03
2022-10-22T04:14:40.922Z,98528.00
2022-10-22T04:17:08.591Z,98531.81
2022-10-22T04:19:36.551Z,98528.56
2022-10-22T04:22:04.560Z,98525.56
2022-10-22T04:24:33.251Z,98516.47
2022-10-22T04:27:00.960Z,98521.53
2022-10-22T04:29:29.951Z,98538.84
2022-10-22T04:31:57.678Z,98533.34
2022-10-22T04:34:28.732Z,98522.06
2022-10-22T04:36:56.710Z,98529.94
2022-10-22T04:39:24.352Z,98540.59
2022-10-22T04:41:52.090Z,98534.88
2022-10-22T04:44:19.792Z,98545.97
2022-10-22T04:46:49.021Z,98527.66
2022-10-22T04:49:16.754Z,98518.59
2022-10-22T04:51:44.480Z,98522.69
2022-10-22T04:54:12.160Z,98529.03
2022-10-22T04:56:39.866Z,98529.22
2022-10-22T04:59:09.407Z,98537.81
2022-10-22T05:01:42.656Z,98550.38
2022-10-22T05:04:15.226Z,98552.22
2022-10-22T05:06:43.546Z,98563.19
2022-10-22T05:09:14.162Z,98555.97
2022-10-22T05:11:45.426Z,98556.81
2022-10-22T05:14:13.469Z,98562.81
2022-10-22T05:16:41.192Z,98566.81
2022-10-22T05:19:10.034Z,98573.19
2022-10-22T05:21:39.408Z,98573.59
2022-10-22T05:24:08.029Z,98567.25
2022-10-22T05:26:35.689Z,98583.13
2022-10-22T05:29:03.492Z,98590.25
2022-10-22T05:31:31.201Z,98590.56
2022-10-22T05:33:58.858Z,98599.59
2022-10-22T05:36:26.550Z,98609.84
2022-10-22T05:38:55.837Z,98633.34
2022-10-22T05:41:25.123Z,98620.81
2022-10-22T05:43:55.326Z,98621.03
2022-10-22T05:46:25.132Z,98618.13
2022-10-22T05:48:53.560Z,98616.44
2022-10-22T05:51:21.655Z,98630.09
2022-10-22T05:53:53.753Z,98626.97
2022-10-22T05:56:23.358Z,98629.75
2022-10-22T05:58:51.251Z,98627.75
2022-10-22T06:01:21.332Z,98628.66
2022-10-22T06:03:49.517Z,98630.63
2022-10-22T06:06:21.276Z,98629.47
2022-10-22T06:08:51.022Z,98627.88
2022-10-22T06:11:20.385Z,98626.31
2022-10-22T06:13:50.504Z,98642.59
2022-10-22T06:16:18.479Z,98647.34
2022-10-22T06:18:46.155Z,98652.47
2022-10-22T06:21:16.621Z,98663.44
2022-10-22T06:23:45.296Z,98664.59
2022-10-22T06:26:13.212Z,98665.81
2022-10-22T06:28:40.900Z,98682.03
2022-10-22T06:31:10.612Z,98697.50
2022-10-22T06:33:42.229Z,98710.72
2022-10-22T06:36:12.015Z,98711.44
2022-10-22T06:38:40.401Z,98724.06
2022-10-22T06:41:09.883Z,98733.50
2022-10-22T06:43:37.722Z,98733.34
2022-10-22T06:46:08.701Z,98722.13
2022-10-22T06:48:37.976Z,98731.84
2022-10-22T06:51:08.406Z,98732.94
2022-10-22T06:53:37.537Z,98744.28
2022-10-22T06:56:09.908Z,98753.50
2022-10-22T06:58:37.907Z,98760.47
2022-10-22T07:01:07.827Z,98770.41
2022-10-22T07:03:37.081Z,98752.25
2022-10-22T07:06:08.435Z,98745.44
2022-10-22T07:08:37.010Z,98757.06
2022-10-22T07:11:09.377Z,98762.03
2022-10-22T07:13:37.234Z,98759.84
2022-10-22T07:16:05.985Z,98753.06
2022-10-22T07:18:34.979Z,98767.16
2022-10-22T07:21:04.216Z,98770.38
2022-10-22T07:23:32.460Z,98767.09
2022-10-22T07:26:02.385Z,98776.91
2022-10-22T07:28:30.184Z,98772.19
2022-10-22T07:30:57.877Z,98771.03
2022-10-22T07:33:25.628Z,98772.31
2022-10-22T07:35:59.140Z,98775.50
2022-10-22T07:38:29.022Z,98770.41
2022-10-22T07:40:57.021Z,98770.03
2022-10-22T07:43:25.542Z,98775.56
2022-10-22T07:45:55.596Z,98766.03
2022-10-22T07:48:23.572Z,98771.91
2022-10-22T07:50:54.050Z,98770.56
2022-10-22T07:53:22.405Z,98770.00
2022-10-22T07:55:52.571Z,98771.00
2022-10-22T07:58:21.192Z,98771.00
2022-10-22T08:00:49.795Z,98777.44
2022-10-22T08:03:18.968Z,98775.06
2022-10-22T08:05:47.100Z,98781.50
2022-10-22T08:08:16.246Z,98777.78
2022-10-22T08:10:44.617Z,98777.03
2022-10-22T08:13:13.725Z,98772.97
2022-10-22T08:18:16.025Z,98782.84
2022-10-22T08:20:43.696Z,98778.63
2022-10-22T08:23:11.411Z,98797.00
2022-10-22T08:25:39.162Z,98797.56
2022-10-22T08:28:06.886Z,98799.38
2022-10-22T08:30:37.886Z,98792.22
2022-10-22T08:33:06.108Z,98778.22
2022-10-22T08:35:33.869Z,98788.94
2022-10-22T08:38:01.545Z,98796.50
2022-10-22T08:40:33.009Z,98799.63
2022-10-22T08:43:18.938Z,98792.97
2022-10-22T08:45:57.098Z,98787.84
2022-10-22T08:48:40.703Z,98786.25
2022-10-22T08:51:15.859Z,98777.09
2022-10-22T08:53:59.313Z,98793.31
2022-10-22T08:56:27.110Z,98787.53
2022-10-22T08:59:01.347Z,98794.69
2022-10-22T09:01:35.258Z,98787.88
2022-10-22T09:04:06.079Z,98786.56
2022-10-22T09:06:36.462Z,98795.22
2022-10-22T09:09:13.619Z,98784.03
2022-10-22T09:11:45.510Z,98794.44
2022-10-22T09:14:16.761Z,98788.88
2022-10-22T09:17:04.078Z,98799.56
2022-10-22T09:19:41.146Z,98799.78
2022-10-22T09:22:19.432Z,98796.81
2022-10-22T09:24:48.889Z,98795.25
2022-10-22T09:27:19.015Z,98802.53
2022-10-22T09:29:48.199Z,98788.41
2022-10-22T09:32:18.508Z,98803.06
2022-10-22T09:34:46.824Z,98805.63
2022-10-22T09:37:18.966Z,98802.47
2022-10-22T09:39:48.631Z,98809.72
2022-10-22T09:42:21.655Z,98815.03
2022-10-22T09:44:54.257Z,98823.31
2022-10-22T09:47:43.539Z,98827.06
2022-10-22T09:50:27.994Z,98823.28
2022-10-22T09:52:59.509Z,98825.88
2022-10-22T09:55:28.171Z,98833.69
2022-10-22T09:57:57.008Z,98824.13
2022-10-22T10:00:25.925Z,98839.47
2022-10-22T10:02:57.722Z,98841.97
2022-10-22T10:05:31.477Z,98850.59
2022-10-22T10:07:59.615Z,98841.00
2022-10-22T10:10:36.139Z,98836.84
2022-10-22T10:13:18.559Z,98848.41
2022-10-22T10:15:55.459Z,98853.53
2022-10-22T10:18:37.825Z,98856.03
2022-10-22T10:23:57.818Z,98854.72
2022-10-22T10:26:32.570Z,98864.34
2022-10-22T10:29:14.960Z,98856.84
2022-10-22T10:31:53.483Z,98859.50
2022-10-22T10:34:32.969Z,98865.81
2022-10-22T10:37:05.549Z,98855.81
2022-10-22T10:39:51.531Z,98876.31
2022-10-22T10:42:27.758Z,98867.50
2022-10-22T10:45:04.917Z,98865.59
2022-10-22T10:47:48.201Z,98869.78
2022-10-22T10:50:25.339Z,98864.00
2022-10-22T10:53:04.455Z,98861.38
2022-10-22T10:55:38.337Z,98869.34
2022-10-22T10:58:11.288Z,98859.84
2022-10-22T11:00:48.195Z,98848.78
2022-10-22T11:03:50.308Z,98852.25
2022-10-22T11:06:25.359Z,98861.16
2022-10-22T11:08:58.969Z,98856.00
2022-10-22T11:11:34.009Z,98847.66
2022-10-22T11:14:11.077Z,98849.41
2022-10-22T11:16:46.133Z,98849.78
2022-10-22T11:19:22.791Z,98851.19
2022-10-22T11:22:07.312Z,98856.81
2022-10-22T11:24:42.144Z,98849.53
2022-10-22T11:27:23.791Z,98850.16
2022-10-22T11:29:59.352Z,98852.25
2022-10-22T11:32:28.389Z,98850.22
2022-10-22T11:34:59.602Z,98844.69
2022-10-22T11:37:34.778Z,98852.59
2022-10-22T11:40:06.566Z,98843.66
2022-10-22T11:42:36.041Z,98849.94
2022-10-22T11:45:07.952Z,98846.28
2022-10-22T11:47:42.824Z,98840.66
2022-10-22T11:50:22.842Z,98835.22
2022-10-22T11:53:00.598Z,98839.59
2022-10-22T11:55:33.211Z,98833.16
2022-10-22T11:58:02.187Z,98827.78
2022-10-22T12:00:42.259Z,98834.53
2022-10-22T12:03:24.642Z,98830.84
2022-10-22T12:06:11.525Z,98839.06
2022-10-22T12:08:45.732Z,98838.69
2022-10-22T12:11:17.769Z,98836.72
2022-10-22T12:14:03.762Z,98822.53
2022-10-22T12:16:55.123Z,98826.00
2022-10-22T12:19:32.928Z,98826.25
2022-10-22T12:22:07.314Z,98818.22
2022-10-22T12:24:40.534Z,98817.78
2022-10-22T12:27:22.213Z,98820.00
2022-10-22T12:29:54.884Z,98815.41
2022-10-22T12:32:22.652Z,98813.13
2022-10-22T12:34:52.868Z,98806.97
2022-10-22T12:37:21.237Z,98804.72
2022-10-22T12:39:50.383Z,98813.03
2022-10-22T12:42:19.032Z,98808.69
2022-10-22T12:44:47.167Z,98809.72
2022-10-22T12:47:17.626Z,98800.41
2022-10-22T12:49:49.156Z,98796.41
2022-10-22T12:52:19.499Z,98804.31
2022-10-22T12:54:48.700Z,98799.97
2022-10-22T12:57:21.129Z,98801.03
2022-10-22T12:59:52.187Z,98798.03
2022-10-22T13:02:22.833Z,98797.91
2022-10-22T13:05:15.991Z,98799.78
2022-10-22T13:07:45.732Z,98798.19
2022-10-22T13:10:19.977Z,98802.34
2022-10-22T13:12:55.285Z,98806.22
2022-10-22T13:15:34.887Z,98807.88
2022-10-22T13:18:04.637Z,98811.53
2022-10-22T13:20:33.176Z,98797.91
2022-10-22T13:23:02.774Z,98798.53
2022-10-22T13:25:31.786Z,98807.22
2022-10-22T13:28:04.002Z,98802.94
2022-10-22T13:30:34.019Z,98793.50
2022-10-22T13:33:03.987Z,98796.59
2022-10-22T13:35:34.136Z,98786.75
2022-10-22T13:38:02.299Z,98794.56
2022-10-22T13:40:30.145Z,98792.06
2022-10-22T13:42:57.913Z,98781.59
2022-10-22T13:45:27.434Z,98783.94
2022-10-22T13:47:56.520Z,98790.66
2022-10-22T13:50:24.208Z,98786.25
2022-10-22T13:52:53.893Z,98782.41
2022-10-22T13:55:25.421Z,98789.47
2022-10-22T13:57:54.154Z,98780.94
2022-10-22T14:00:23.209Z,98790.91
2022-10-22T14:03:00.194Z,98781.63
2022-10-22T14:05:27.888Z,98796.34
2022-10-22T14:07:57.865Z,98797.19
2022-10-22T14:10:25.978Z,98790.03
2022-10-22T14:12:54.005Z,98788.84
2022-10-22T14:15:23.708Z,98795.41
2022-10-22T14:17:54.878Z,98788.84
2022-10-22T14:20:25.843Z,98789.75
2022-10-22T14:22:53.821Z,98787.72
2022-10-22T14:25:23.672Z,98781.75
2022-10-22T14:27:51.704Z,98781.50
2022-10-22T14:30:21.547Z,98780.41
2022-10-22T14:32:49.756Z,98780.63
2022-10-22T14:35:21.147Z,98789.97
2022-10-22T14:37:49.211Z,98794.47
2022-10-22T14:40:19.134Z,98791.56
2022-10-22T14:42:48.657Z,98789.06
2022-10-22T14:45:20.982Z,98798.03
2022-10-22T14:47:48.747Z,98797.13
2022-10-22T14:50:18.289Z,98800.34
2022-10-22T14:52:46.259Z,98781.88
2022-10-22T14:55:15.641Z,98781.34
2022-10-22T14:57:44.261Z,98790.66
2022-10-22T15:00:18.768Z,98791.38
2022-10-22T15:02:47.929Z,98792.38
2022-10-22T15:05:17.353Z,98798.00
2022-10-22T15:07:46.675Z,98802.97
2022-10-22T15:10:15.322Z,98794.97
2022-10-22T15:12:43.054Z,98802.25
2022-10-22T15:15:11.436Z,98803.44
2022-10-22T15:17:39.580Z,98803.63
2022-10-22T15:20:08.595Z,98811.13
2022-10-22T15:22:36.386Z,98803.47
2022-10-22T15:25:08.086Z,98799.47
2022-10-22T15:27:36.564Z,98805.38
2022-10-22T15:30:05.279Z,98802.59
2022-10-22T15:32:34.036Z,98806.09
2022-10-22T15:35:02.157Z,98803.56
2022-10-22T15:37:30.804Z,98801.00
2022-10-22T15:39:58.528Z,98799.31
2022-10-22T15:42:27.752Z,98799.59
2022-10-22T15:44:59.077Z,98800.44
2022-10-22T15:47:28.546Z,98798.75
2022-10-22T15:49:56.619Z,98806.88
2022-10-22T15:52:24.609Z,98799.72
2022-10-22T15:54:52.329Z,98796.25
2022-10-22T15:57:20.037Z,98795.28
2022-10-22T15:59:50.016Z,98795.38
2022-10-22T16:02:17.762Z,98799.47
2022-10-22T16:04:45.467Z,98803.91
2022-10-22T16:07:13.204Z,98802.56
2022-10-22T16:09:40.937Z,98803.81
2022-10-22T16:12:08.788Z,98810.97
2022-10-22T16:14:36.577Z,98803.41
2022-10-22T16:17:05.722Z,98802.47
2022-10-22T16:19:34.152Z,98815.44
2022-10-22T16:22:03.319Z,98812.75
2022-10-22T16:24:31.129Z,98805.19
2022-10-22T16:26:58.834Z,98806.56
2022-10-22T16:29:26.617Z,98803.78
2022-10-22T16:31:54.351Z,98803.75
2022-10-22T16:34:23.480Z,98796.50
2022-10-22T16:39:25.149Z,98803.31
2022-10-22T16:41:52.879Z,98809.66
2022-10-22T16:44:20.674Z,98809.09
2022-10-22T16:46:48.410Z,98816.25
2022-10-22T16:49:16.120Z,98825.19
2022-10-22T16:51:45.257Z,98831.72
2022-10-22T16:54:15.945Z,98830.25
2022-10-22T16:56:43.718Z,98831.59
2022-10-22T16:59:11.424Z,98833.53
2022-10-22T17:01:41.247Z,98828.25
2022-10-22T17:04:09.710Z,98827.38
2022-10-22T17:06:37.606Z,98834.63
2022-10-22T17:09:07.290Z,98839.22
2022-10-22T17:11:37.031Z,98834.75
2022-10-22T17:14:07.448Z,98835.91
2022-10-22T17:16:37.324Z,98843.09
2022-10-22T17:19:05.781Z,98840.59
2022-10-22T17:21:33.868Z,98841.50
2022-10-22T17:24:01.666Z,98838.59
2022-10-22T17:26:34.586Z,98841.44
2022-10-22T17:29:02.441Z,98844.84
2022-10-22T17:31:32.618Z,98851.53
2022-10-22T17:34:00.873Z,98853.22
2022-10-22T17:36:33.302Z,98853.06
2022-10-22T17:39:06.652Z,98858.53
2022-10-22T17:41:36.838Z,98857.72
2022-10-22T17:44:06.746Z,98860.91
2022-10-22T17:46:34.423Z,98863.63
2022-10-22T17:49:04.262Z,98869.41
2022-10-22T17:51:32.973Z,98868.91
2022-10-22T17:54:02.456Z,98870.00
2022-10-22T17:56:32.475Z,98879.47
2022-10-22T17:59:02.977Z,98868.06
2022-10-22T18:01:32.682Z,98877.53
2022-10-22T18:04:03.275Z,98875.09
2022-10-22T18:06:31.672Z,98886.22
2022-10-22T18:09:00.093Z,98883.81
2022-10-22T18:11:31.437Z,98883.81
2022-10-22T18:14:00.946Z,98880.69
2022-10-22T18:16:29.341Z,98878.69
2022-10-22T18:18:58.463Z,98872.31
2022-10-22T18:21:28.302Z,98870.72
2022-10-22T18:23:56.736Z,98871.16
2022-10-22T18:26:26.797Z,98867.63
2022-10-22T18:28:54.919Z,98866.13
2022-10-22T18:31:25.748Z,98864.25
2022-10-22T18:36:28.268Z,98873.53
2022-10-22T18:38:58.061Z,98871.47
2022-10-22T18:41:26.533Z,98865.28
2022-10-22T18:43:55.649Z,98873.22
2022-10-22T18:46:25.652Z,98869.66
2022-10-22T18:48:54.424Z,98867.25
2022-10-22T18:51:22.608Z,98864.50
2022-10-22T18:54:04.500Z,98873.25
2022-10-22T18:56:39.811Z,98867.25
2022-10-22T18:59:07.544Z,98856.56
2022-10-22T19:01:36.578Z,98861.25
2022-10-22T19:04:04.287Z,98853.38
2022-10-22T19:06:36.747Z,98852.59
2022-10-22T19:09:05.333Z,98855.72
2022-10-22T19:11:34.171Z,98864.75
2022-10-22T19:14:02.460Z,98856.69
2022-10-22T19:16:30.218Z,98859.72
2022-10-22T19:19:03.842Z,98870.91
2022-10-22T19:21:31.936Z,98860.34
2022-10-22T19:24:00.737Z,98865.19
2022-10-22T19:26:30.139Z,98869.47
2022-10-22T19:28:59.146Z,98869.09
2022-10-22T19:31:29.754Z,98869.09
2022-10-22T19:33:57.496Z,98876.66
2022-10-22T19:36:27.958Z,98877.06
2022-10-22T19:38:56.842Z,98868.75
2022-10-22T19:41:27.483Z,98873.97
2022-10-22T19:43:56.895Z,98860.13
2022-10-22T19:46:26.884Z,98853.38
2022-10-22T19:48:56.928Z,98854.56
2022-10-22T19:51:29.643Z,98858.84
2022-10-22T19:54:01.896Z,98862.81
2022-10-22T19:56:30.349Z,98854.84
2022-10-22T19:58:58.460Z,98846.94
2022-10-22T20:01:26.566Z,98858.34
2022-10-22T20:03:54.823Z,98851.13
2022-10-22T20:06:22.814Z,98861.34
2022-10-22T20:08:55.232Z,98872.03
2022-10-22T20:11:26.599Z,98865.97
2022-10-22T20:13:54.688Z,98877.66
2022-10-22T20:16:27.091Z,98879.69
2022-10-22T20:18:54.960Z,98876.66
2022-10-22T20:21:22.726Z,98876.34
2022-10-22T20:23:56.586Z,98866.47
2022-10-22T20:26:27.783Z,98878.66
2022-10-22T20:28:56.191Z,98877.56
2022-10-22T20:31:26.541Z,98883.78
2022-10-22T20:33:57.037Z,98885.31
2022-10-22T20:36:25.423Z,98890.34
2022-10-22T20:39:00.318Z,98890.19
2022-10-22T20:41:28.500Z,98880.75
2022-10-22T20:43:56.440Z,98886.69
2022-10-22T20:46:26.320Z,98893.50
2022-10-22T20:48:56.114Z,98889.56
2022-10-22T20:51:23.818Z,98890.00
2022-10-22T20:53:51.645Z,98894.31
2022-10-22T20:56:21.150Z,98894.63
2022-10-22T20:58:49.076Z,98891.16
2022-10-22T21:01:21.459Z,98885.00
2022-10-22T21:03:49.696Z,98880.31
2022-10-22T21:06:17.598Z,98875.72
2022-10-22T21:08:45.289Z,98876.53
2022-10-22T21:11:13.027Z,98867.91
2022-10-22T21:13:42.036Z,98870.31
2022-10-22T21:16:11.119Z,98873.47
2022-10-22T21:18:39.221Z,98870.97
2022-10-22T21:21:07.839Z,98874.69
2022-10-22T21:23:36.817Z,98876.28
2022-10-22T21:26:05.278Z,98863.97
2022-10-22T21:28:35.165Z,98865.19
2022-10-22T21:31:05.524Z,98875.03
2022-10-22T21:33:33.469Z,98870.31
2022-10-22T21:36:01.146Z,98870.97
2022-10-22T21:38:28.836Z,98863.16
2022-10-22T21:40:56.588Z,98867.81
2022-10-22T21:43:24.381Z,98862.97
2022-10-22T21:45:52.082Z,98867.63
2022-10-22T21:48:21.091Z,98870.66
2022-10-22T21:50:49.986Z,98870.44
2022-10-22T21:53:17.659Z,98877.69
2022-10-22T21:55:45.323Z,98869.31
2022-10-22T21:58:13.038Z,98866.09
2022-10-22T22:00:40.732Z,98868.41
2022-10-22T22:03:08.946Z,98861.34
2022-10-22T22:05:38.036Z,98862.13
2022-10-22T22:08:06.196Z,98855.84
2022-10-22T22:10:33.925Z,98862.84
2022-10-22T22:13:01.644Z,98859.91
2022-10-22T22:15:31.490Z,98867.44
2022-10-22T22:17:59.191Z,98872.88
2022-10-22T22:20:27.032Z,98879.50
2022-10-22T22:22:56.055Z,98882.31
2022-10-22T22:25:23.773Z,98885.13
2022-10-22T22:27:51.449Z,98884.41
2022-10-22T22:30:19.149Z,98889.06
2022-10-22T22:32:46.889Z,98885.25
2022-10-22T22:35:14.618Z,98896.53
2022-10-22T22:37:42.526Z,98884.44
2022-10-22T22:40:12.770Z,98897.41
2022-10-22T22:42:40.456Z,98902.28
2022-10-22T22:45:08.776Z,98894.59
2022-10-22T22:47:36.428Z,98895.44
2022-10-22T22:50:04.279Z,98880.16
2022-10-22T22:52:32.093Z,98871.81
2022-10-22T22:54:59.761Z,98863.25
2022-10-22T22:57:29.038Z,98863.25
2022-10-22T22:59:59.636Z,98859.88
2022-10-22T23:02:27.411Z,98852.56
2022-10-22T23:04:55.235Z,98862.47
2022-10-22T23:07:22.940Z,98860.91
2022-10-22T23:09:50.730Z,98850.97
2022-10-22T23:12:18.606Z,98852.03
2022-10-22T23:14:50.224Z,98853.75
2022-10-22T23:17:18.061Z,98852.81
2022-10-22T23:19:45.817Z,98850.19
2022-10-22T23:22:13.508Z,98852.44
2022-10-22T23:24:41.206Z,98848.38
2022-10-22T23:27:08.849Z,98842.56
2022-10-22T23:29:36.975Z,98836.94
2022-10-22T23:32:09.294Z,98837.34
2022-10-22T23:34:36.980Z,98843.09
2022-10-22T23:37:04.875Z,98844.25
2022-10-22T23:39:32.758Z,98844.81
2022-10-22T23:42:00.432Z,98836.09
2022-10-22T23:44:28.135Z,98835.88
2022-10-22T23:46:56.092Z,98849.72
2022-10-22T23:49:25.121Z,98837.69
2022-10-22T23:51:52.942Z,98840.84
2022-10-22T23:54:20.751Z,98842.19
2022-10-22T23:56:48.638Z,98838.28
2022-10-22T23:59:16.523Z,98824.13
